createdAt,value
2024-02-20T00:00:42.237Z,73.57
2024-02-20T00:03:10.061Z,73.49
2024-02-20T00:05:38.024Z,73.32
2024-02-20T00:08:07.129Z,72.93
2024-02-20T00:10:35.139Z,73.13
2024-02-20T00:13:04.500Z,73.23
2024-02-20T00:15:33.894Z,72.57
2024-02-20T00:18:01.792Z,72.79
2024-02-20T00:20:30.165Z,72.20
2024-02-20T00:22:57.989Z,72.57
2024-02-20T00:25:26.287Z,73.43
2024-02-20T00:27:54.257Z,72.77
2024-02-20T00:30:22.546Z,72.64
2024-02-20T00:32:51.837Z,72.93
2024-02-20T00:35:19.827Z,73.09
2024-02-20T00:37:47.797Z,72.88
2024-02-20T00:40:15.887Z,73.20
2024-02-20T00:42:46.780Z,72.80
2024-02-20T00:45:14.642Z,72.62
2024-02-20T00:47:42.521Z,72.98
2024-02-20T00:50:12.280Z,73.58
2024-02-20T00:52:40.205Z,74.18
2024-02-20T00:55:09.028Z,73.97
2024-02-20T00:57:37.369Z,74.60
2024-02-20T01:00:06.472Z,74.59
2024-02-20T01:02:34.304Z,74.26
2024-02-20T01:05:02.931Z,74.77
2024-02-20T01:07:32.784Z,74.52
2024-02-20T01:10:00.751Z,74.50
2024-02-20T01:12:28.653Z,74.71
2024-02-20T01:14:57.784Z,74.87
2024-02-20T01:17:25.743Z,74.54
2024-02-20T01:19:53.609Z,74.34
2024-02-20T01:22:21.576Z,74.14
2024-02-20T01:24:50.813Z,74.30
2024-02-20T01:27:18.762Z,74.81
2024-02-20T01:29:46.985Z,75.30
2024-02-20T01:32:14.964Z,75.43
2024-02-20T01:34:42.823Z,75.08
2024-02-20T01:37:10.854Z,74.86
2024-02-20T01:39:38.815Z,75.02
2024-02-20T01:42:08.075Z,74.97
2024-02-20T01:44:36.025Z,75.03
2024-02-20T01:47:04.510Z,74.88
2024-02-20T01:49:33.112Z,75.39
2024-02-20T01:52:01.659Z,75.52
2024-02-20T01:54:29.468Z,75.57
2024-02-20T01:56:57.216Z,75.29
2024-02-20T01:59:27.129Z,75.69
2024-02-20T02:01:54.988Z,75.92
2024-02-20T02:04:23.066Z,75.56
2024-02-20T02:06:51.103Z,76.15
2024-02-20T02:09:18.990Z,75.86
2024-02-20T02:11:46.853Z,76.40
2024-02-20T02:14:14.934Z,76.22
2024-02-20T02:16:46.463Z,76.99
2024-02-20T02:19:14.878Z,76.99
2024-02-20T02:21:42.769Z,76.59
2024-02-20T02:24:10.896Z,76.56
2024-02-20T02:26:39.996Z,76.83
2024-02-20T02:29:08.387Z,76.54
2024-02-20T02:31:36.304Z,76.63
2024-02-20T02:34:04.441Z,76.93
2024-02-20T02:36:33.685Z,76.55
2024-02-20T02:39:01.710Z,76.32
2024-02-20T02:41:30.917Z,76.22
2024-02-20T02:44:00.194Z,76.20
2024-02-20T02:46:28.228Z,76.10
2024-02-20T02:48:56.320Z,76.36
2024-02-20T02:51:24.305Z,76.24
2024-02-20T02:53:52.442Z,76.50
2024-02-20T02:56:21.588Z,76.24
2024-02-20T02:58:49.309Z,76.08
2024-02-20T03:01:18.795Z,76.73
2024-02-20T03:03:46.788Z,76.46
2024-02-20T03:06:15.229Z,76.08
2024-02-20T03:08:46.104Z,76.59
2024-02-20T03:11:14.236Z,76.14
2024-02-20T03:13:42.422Z,76.27
2024-02-20T03:16:11.890Z,76.55
2024-02-20T03:18:43.753Z,76.76
2024-02-20T03:21:11.767Z,76.56
2024-02-20T03:23:39.649Z,76.79
2024-02-20T03:26:08.153Z,76.86
2024-02-20T03:28:36.333Z,76.67
2024-02-20T03:31:04.674Z,76.71
2024-02-20T03:33:34.791Z,76.56
2024-02-20T03:36:05.885Z,76.83
2024-02-20T03:38:33.812Z,76.74
2024-02-20T03:41:01.735Z,76.57
2024-02-20T03:43:30.543Z,76.72
2024-02-20T03:45:58.364Z,76.71
2024-02-20T03:48:26.308Z,77.00
2024-02-20T03:50:54.584Z,76.66
2024-02-20T03:53:24.283Z,76.68
2024-02-20T03:55:52.570Z,76.98
2024-02-20T03:58:21.151Z,76.79
2024-02-20T04:00:49.258Z,77.15
2024-02-20T04:03:17.254Z,76.87
2024-02-20T04:05:45.767Z,76.75
2024-02-20T04:08:13.990Z,77.00
2024-02-20T04:10:43.674Z,76.59
2024-02-20T04:13:11.762Z,76.96
2024-02-20T04:15:40.288Z,76.83
2024-02-20T04:18:08.507Z,76.76
2024-02-20T04:20:37.120Z,76.54
2024-02-20T04:23:07.858Z,76.54
2024-02-20T04:25:35.905Z,76.34
2024-02-20T04:28:05.830Z,76.34
2024-02-20T04:30:35.643Z,76.32
2024-02-20T04:33:04.182Z,75.79
2024-02-20T04:35:32.735Z,76.22
2024-02-20T04:38:00.577Z,76.33
2024-02-20T04:40:28.807Z,76.31
2024-02-20T04:42:56.680Z,75.95
2024-02-20T04:45:26.116Z,76.20
2024-02-20T04:47:55.118Z,76.41
2024-02-20T04:50:23.348Z,76.55
2024-02-20T04:52:51.271Z,76.90
2024-02-20T04:55:19.258Z,76.58
2024-02-20T04:57:47.147Z,76.65
2024-02-20T05:00:16.277Z,76.54
2024-02-20T05:02:47.408Z,76.07
2024-02-20T05:05:15.962Z,76.42
2024-02-20T05:07:43.856Z,75.91
2024-02-20T05:10:12.344Z,76.38
2024-02-20T05:12:44.378Z,76.26
2024-02-20T05:15:12.896Z,76.19
2024-02-20T05:17:41.734Z,76.14
2024-02-20T05:20:12.715Z,76.46
2024-02-20T05:22:40.936Z,76.61
2024-02-20T05:25:09.630Z,76.65
2024-02-20T05:27:37.505Z,75.91
2024-02-20T05:30:07.506Z,76.08
2024-02-20T05:32:35.866Z,75.75
2024-02-20T05:35:07.296Z,76.04
2024-02-20T05:37:37.751Z,76.72
2024-02-20T05:40:11.910Z,76.77
2024-02-20T05:42:40.251Z,76.86
2024-02-20T05:45:10.283Z,76.84
2024-02-20T05:47:39.546Z,77.16
2024-02-20T05:50:09.380Z,77.38
2024-02-20T05:52:39.885Z,77.31
2024-02-20T05:55:09.810Z,77.39
2024-02-20T05:57:38.462Z,77.32
2024-02-20T06:00:09.286Z,77.06
2024-02-20T06:02:38.026Z,77.17
2024-02-20T06:05:08.546Z,77.18
2024-02-20T06:07:38.809Z,77.10
2024-02-20T06:10:19.917Z,77.69
2024-02-20T06:12:48.117Z,77.50
2024-02-20T06:15:16.840Z,76.70
2024-02-20T06:17:44.757Z,77.31
2024-02-20T06:20:13.452Z,77.03
2024-02-20T06:22:42.678Z,77.04
2024-02-20T06:25:11.507Z,77.00
2024-02-20T06:27:39.929Z,77.06
2024-02-20T06:30:13.452Z,77.26
2024-02-20T06:32:41.965Z,77.16
2024-02-20T06:35:10.638Z,76.96
2024-02-20T06:37:38.719Z,77.39
2024-02-20T06:40:09.405Z,77.84
2024-02-20T06:42:37.752Z,77.95
2024-02-20T06:45:08.013Z,77.94
2024-02-20T06:47:37.241Z,78.04
2024-02-20T06:50:06.388Z,78.60
2024-02-20T06:52:35.516Z,78.13
2024-02-20T06:55:03.669Z,78.12
2024-02-20T06:57:33.086Z,78.00
2024-02-20T07:00:01.007Z,78.30
2024-02-20T07:02:28.877Z,78.02
2024-02-20T07:04:57.093Z,78.11
2024-02-20T07:07:25.202Z,78.34
2024-02-20T07:09:53.160Z,78.89
2024-02-20T07:12:21.253Z,78.71
2024-02-20T07:14:50.505Z,78.92
2024-02-20T07:17:19.625Z,78.60
2024-02-20T07:19:47.657Z,78.21
2024-02-20T07:22:16.124Z,78.38
2024-02-20T07:24:43.978Z,78.86
2024-02-20T07:27:11.940Z,78.84
2024-02-20T07:29:42.903Z,79.07
2024-02-20T07:32:13.035Z,79.49
2024-02-20T07:34:44.549Z,79.80
2024-02-20T07:37:13.396Z,79.87
2024-02-20T07:39:42.103Z,79.35
2024-02-20T07:42:09.987Z,79.56
2024-02-20T07:44:37.897Z,79.43
2024-02-20T07:47:06.134Z,79.43
2024-02-20T07:49:36.088Z,79.99
2024-02-20T07:52:04.308Z,79.57
2024-02-20T07:54:32.473Z,80.48
2024-02-20T07:57:00.489Z,80.75
2024-02-20T07:59:28.277Z,80.55
2024-02-20T08:01:56.275Z,80.52
2024-02-20T08:04:24.805Z,80.59
2024-02-20T08:06:54.304Z,81.07
2024-02-20T08:09:22.684Z,81.07
2024-02-20T08:11:50.970Z,80.69
2024-02-20T08:14:20.621Z,80.88
2024-02-20T08:16:50.533Z,81.60
2024-02-20T08:19:18.979Z,81.13
2024-02-20T08:21:47.089Z,81.13
2024-02-20T08:24:16.721Z,81.18
2024-02-20T08:26:44.892Z,81.25
2024-02-20T08:29:13.697Z,81.37
2024-02-20T08:31:42.908Z,81.65
2024-02-20T08:34:12.046Z,81.51
2024-02-20T08:36:41.335Z,82.14
2024-02-20T08:39:09.617Z,82.29
2024-02-20T08:41:39.086Z,83.36
2024-02-20T08:44:08.572Z,83.66
2024-02-20T08:46:36.940Z,83.51
2024-02-20T08:49:05.346Z,83.19
2024-02-20T08:51:33.904Z,83.11
2024-02-20T08:54:02.578Z,82.57
2024-02-20T08:56:30.842Z,82.67
2024-02-20T08:59:00.131Z,82.30
2024-02-20T09:01:28.369Z,82.10
2024-02-20T09:03:57.322Z,82.42
2024-02-20T09:06:25.481Z,83.36
2024-02-20T09:08:53.978Z,83.36
2024-02-20T09:11:22.090Z,82.68
2024-02-20T09:13:50.483Z,82.91
2024-02-20T09:16:20.148Z,82.81
2024-02-20T09:18:48.838Z,82.68
2024-02-20T09:21:18.237Z,82.52
2024-02-20T09:23:46.234Z,82.51
2024-02-20T09:26:15.288Z,82.67
2024-02-20T09:28:43.538Z,82.23
2024-02-20T09:31:11.744Z,83.10
2024-02-20T09:33:41.068Z,82.86
2024-02-20T09:36:09.498Z,82.56
2024-02-20T09:38:37.990Z,82.73
2024-02-20T09:41:06.549Z,81.95
2024-02-20T09:43:36.153Z,81.60
2024-02-20T09:46:09.330Z,81.70
2024-02-20T09:48:37.793Z,81.22
2024-02-20T09:51:08.346Z,81.60
2024-02-20T09:53:40.963Z,81.76
2024-02-20T09:56:09.567Z,81.99
2024-02-20T09:58:37.640Z,82.17
2024-02-20T10:01:06.733Z,81.41
2024-02-20T10:03:36.852Z,81.57
2024-02-20T10:06:09.851Z,81.95
2024-02-20T10:08:39.031Z,81.98
2024-02-20T10:11:08.422Z,81.72
2024-02-20T10:13:44.717Z,81.50
2024-02-20T10:16:14.634Z,80.83
2024-02-20T10:18:42.795Z,80.92
2024-02-20T10:21:13.247Z,80.76
2024-02-20T10:23:41.063Z,80.70
2024-02-20T10:26:09.384Z,80.81
2024-02-20T10:28:37.323Z,81.17
2024-02-20T10:31:05.574Z,80.94
2024-02-20T10:33:35.338Z,80.53
2024-02-20T10:36:05.909Z,80.55
2024-02-20T10:38:35.207Z,80.65
2024-02-20T10:41:04.027Z,80.35
2024-02-20T10:43:32.698Z,80.21
2024-02-20T10:46:01.608Z,80.78
2024-02-20T10:48:30.565Z,80.01
2024-02-20T10:51:02.390Z,79.86
2024-02-20T10:53:32.449Z,80.03
2024-02-20T10:56:05.355Z,80.13
2024-02-20T10:58:34.595Z,79.80
2024-02-20T11:01:03.535Z,79.81
2024-02-20T11:03:41.363Z,79.93
2024-02-20T11:06:14.385Z,80.54
2024-02-20T11:08:42.677Z,80.15
2024-02-20T11:11:14.247Z,79.13
2024-02-20T11:13:43.744Z,78.56
2024-02-20T11:16:13.326Z,79.16
2024-02-20T11:18:53.254Z,79.14
2024-02-20T11:21:27.088Z,79.43
2024-02-20T11:23:55.098Z,80.23
2024-02-20T11:26:30.455Z,80.07
2024-02-20T11:28:59.230Z,80.08
2024-02-20T11:31:28.306Z,80.10
2024-02-20T11:33:57.266Z,80.03
2024-02-20T11:36:25.736Z,79.60
2024-02-20T11:39:04.895Z,78.93
2024-02-20T11:41:38.536Z,79.20
2024-02-20T11:44:08.671Z,78.98
2024-02-20T11:46:36.851Z,78.42
2024-02-20T11:49:05.018Z,78.52
2024-02-20T11:51:33.079Z,78.63
2024-02-20T11:54:04.896Z,79.00
2024-02-20T11:56:34.678Z,77.61
2024-02-20T11:59:04.117Z,77.96
2024-02-20T12:01:35.597Z,78.10
2024-02-20T12:04:07.364Z,77.40
2024-02-20T12:06:37.189Z,77.31
2024-02-20T12:09:05.673Z,77.63
2024-02-20T12:11:35.218Z,77.20
2024-02-20T12:14:07.158Z,76.81
2024-02-20T12:16:38.518Z,76.10
2024-02-20T12:19:13.813Z,75.75
2024-02-20T12:21:49.829Z,75.71
2024-02-20T12:24:24.473Z,76.15
2024-02-20T12:26:54.363Z,76.32
2024-02-20T12:29:22.480Z,76.27
2024-02-20T12:31:50.703Z,75.48
2024-02-20T12:34:19.745Z,75.20
2024-02-20T12:36:49.887Z,74.76
2024-02-20T12:39:19.206Z,74.55
2024-02-20T12:41:47.200Z,75.13
2024-02-20T12:44:16.465Z,75.17
2024-02-20T12:46:44.392Z,74.11
2024-02-20T12:49:12.251Z,74.52
2024-02-20T12:51:40.080Z,73.84
2024-02-20T12:54:07.972Z,73.80
2024-02-20T12:56:35.933Z,73.43
2024-02-20T12:59:04.045Z,72.46
2024-02-20T13:01:33.790Z,72.06
2024-02-20T13:04:03.690Z,72.45
2024-02-20T13:06:32.272Z,71.98
2024-02-20T13:09:00.162Z,72.18
2024-02-20T13:11:29.056Z,72.65
2024-02-20T13:13:57.618Z,72.07
2024-02-20T13:16:26.327Z,71.90
2024-02-20T13:18:55.853Z,71.50
2024-02-20T13:21:24.106Z,70.73
2024-02-20T13:23:52.608Z,70.60
2024-02-20T13:26:20.889Z,70.05
2024-02-20T13:28:48.904Z,70.39
2024-02-20T13:31:19.135Z,70.38
2024-02-20T13:33:47.303Z,69.88
2024-02-20T13:36:16.794Z,69.92
2024-02-20T13:38:44.878Z,69.89
2024-02-20T13:41:13.513Z,69.77
2024-02-20T13:43:41.717Z,69.70
2024-02-20T13:46:10.241Z,69.78
2024-02-20T13:48:38.282Z,70.36
2024-02-20T13:51:06.729Z,70.33
2024-02-20T13:53:36.016Z,70.11
2024-02-20T13:56:05.127Z,70.18
2024-02-20T13:58:33.305Z,69.72
2024-02-20T14:01:01.398Z,69.88
2024-02-20T14:03:30.385Z,70.58
2024-02-20T14:05:58.857Z,70.63
2024-02-20T14:08:27.435Z,70.43
2024-02-20T14:10:57.390Z,70.02
2024-02-20T14:13:26.401Z,69.55
2024-02-20T14:15:56.089Z,70.15
2024-02-20T14:18:24.767Z,69.56
2024-02-20T14:20:58.559Z,69.45
2024-02-20T14:23:26.812Z,69.53
2024-02-20T14:25:56.421Z,69.83
2024-02-20T14:28:24.613Z,69.65
2024-02-20T14:31:01.252Z,70.50
2024-02-20T14:33:31.188Z,70.25
2024-02-20T14:35:59.852Z,69.89
2024-02-20T14:38:28.377Z,70.07
2024-02-20T14:40:58.272Z,70.08
2024-02-20T14:43:26.587Z,70.00
2024-02-20T14:45:54.780Z,69.94
2024-02-20T14:48:23.192Z,69.82
2024-02-20T14:50:51.618Z,69.66
2024-02-20T14:53:20.612Z,70.14
2024-02-20T14:55:49.554Z,69.61
2024-02-20T14:58:19.494Z,69.59
2024-02-20T15:00:47.878Z,69.25
2024-02-20T15:03:18.751Z,69.42
2024-02-20T15:05:49.170Z,69.67
2024-02-20T15:08:18.710Z,69.74
2024-02-20T15:10:47.217Z,69.56
2024-02-20T15:13:16.316Z,69.90
2024-02-20T15:15:46.299Z,70.00
2024-02-20T15:18:14.389Z,70.67
2024-02-20T15:20:44.421Z,70.75
2024-02-20T15:23:13.694Z,70.49
2024-02-20T15:25:42.409Z,70.89
2024-02-20T15:28:11.822Z,70.46
2024-02-20T15:30:40.037Z,70.36
2024-02-20T15:33:09.589Z,70.50
2024-02-20T15:35:38.218Z,70.55
2024-02-20T15:38:06.645Z,70.60
2024-02-20T15:40:41.118Z,70.46
2024-02-20T15:43:14.386Z,70.33
2024-02-20T15:45:44.330Z,70.72
2024-02-20T15:48:14.586Z,70.67
2024-02-20T15:50:44.863Z,70.92
2024-02-20T15:53:16.158Z,70.28
2024-02-20T15:55:46.217Z,70.62
2024-02-20T15:58:16.395Z,70.94
2024-02-20T16:00:45.637Z,71.55
2024-02-20T16:03:15.098Z,70.98
2024-02-20T16:05:43.244Z,70.71
2024-02-20T16:08:16.404Z,71.02
2024-02-20T16:10:44.762Z,70.41
2024-02-20T16:13:13.074Z,70.73
2024-02-20T16:15:41.217Z,70.59
2024-02-20T16:18:09.202Z,69.86
2024-02-20T16:20:38.646Z,69.51
2024-02-20T16:23:09.656Z,69.74
2024-02-20T16:25:39.176Z,68.98
2024-02-20T16:28:07.682Z,69.15
2024-02-20T16:30:35.952Z,68.91
2024-02-20T16:33:04.556Z,69.23
2024-02-20T16:35:34.387Z,68.42
2024-02-20T16:38:04.431Z,68.73
2024-02-20T16:40:33.211Z,67.81
2024-02-20T16:43:01.796Z,67.89
2024-02-20T16:45:32.789Z,68.66
2024-02-20T16:48:00.859Z,68.78
2024-02-20T16:50:34.078Z,68.88
2024-02-20T16:53:05.216Z,68.42
2024-02-20T16:55:34.497Z,68.83
2024-02-20T16:58:02.611Z,69.45
2024-02-20T17:00:31.408Z,70.71
2024-02-20T17:02:59.698Z,70.95
2024-02-20T17:05:29.379Z,71.46
2024-02-20T17:07:57.642Z,72.03
2024-02-20T17:10:28.274Z,72.79
2024-02-20T17:12:56.228Z,72.59
2024-02-20T17:15:24.493Z,72.22
2024-02-20T17:17:52.578Z,73.75
2024-02-20T17:20:21.265Z,73.96
2024-02-20T17:22:51.390Z,73.67
2024-02-20T17:25:22.096Z,74.38
2024-02-20T17:27:51.611Z,75.35
2024-02-20T17:30:19.648Z,75.75
2024-02-20T17:32:47.862Z,76.52
2024-02-20T17:35:16.134Z,76.61
2024-02-20T17:37:44.329Z,77.03
2024-02-20T17:40:14.311Z,76.73
2024-02-20T17:42:43.169Z,76.06
2024-02-20T17:45:17.663Z,75.92
2024-02-20T17:47:45.835Z,76.63
2024-02-20T17:50:14.054Z,77.42
2024-02-20T17:52:42.524Z,77.21
2024-02-20T17:55:11.195Z,76.62
2024-02-20T17:57:39.228Z,76.71
2024-02-20T18:00:08.488Z,77.33
2024-02-20T18:02:41.076Z,77.50
2024-02-20T18:05:09.828Z,77.43
2024-02-20T18:07:38.350Z,77.05
2024-02-20T18:10:07.957Z,77.70
2024-02-20T18:12:36.870Z,77.41
2024-02-20T18:15:08.701Z,78.48
2024-02-20T18:17:36.840Z,79.55
2024-02-20T18:20:07.593Z,79.67
2024-02-20T18:22:35.771Z,80.47
2024-02-20T18:25:04.428Z,80.24
2024-02-20T18:27:32.411Z,80.28
2024-02-20T18:30:00.391Z,80.16
2024-02-20T18:32:28.417Z,80.54
2024-02-20T18:34:56.523Z,80.90
2024-02-20T18:37:25.801Z,81.47
2024-02-20T18:39:54.382Z,80.70
2024-02-20T18:42:22.348Z,80.81
2024-02-20T18:44:50.291Z,80.72
2024-02-20T18:47:18.742Z,81.18
2024-02-20T18:49:47.369Z,81.27
2024-02-20T18:52:16.109Z,82.02
2024-02-20T18:54:45.517Z,82.38
2024-02-20T18:57:14.041Z,82.22
2024-02-20T18:59:41.888Z,82.41
2024-02-20T19:02:18.485Z,82.06
2024-02-20T19:04:55.536Z,81.77
2024-02-20T19:07:24.895Z,81.22
2024-02-20T19:09:54.764Z,81.41
2024-02-20T19:12:23.761Z,81.37
2024-02-20T19:14:53.671Z,81.24
2024-02-20T19:17:21.977Z,81.40
2024-02-20T19:19:50.268Z,81.36
2024-02-20T19:22:18.442Z,82.47
2024-02-20T19:24:46.437Z,82.75
2024-02-20T19:27:15.923Z,83.09
2024-02-20T19:29:43.917Z,82.48
2024-02-20T19:32:12.049Z,82.33
2024-02-20T19:34:43.522Z,82.18
2024-02-20T19:37:11.554Z,82.23
2024-02-20T19:39:40.394Z,81.66
2024-02-20T19:42:08.526Z,82.05
2024-02-20T19:44:39.986Z,82.12
2024-02-20T19:47:09.380Z,82.63
2024-02-20T19:49:37.990Z,82.24
2024-02-20T19:52:06.121Z,82.22
2024-02-20T19:54:34.029Z,82.23
2024-02-20T19:57:02.143Z,82.31
2024-02-20T19:59:30.324Z,82.08
2024-02-20T20:01:59.777Z,82.98
2024-02-20T20:04:27.914Z,82.91
2024-02-20T20:06:55.935Z,82.22
2024-02-20T20:09:24.210Z,82.56
2024-02-20T20:11:52.278Z,83.22
2024-02-20T20:14:20.405Z,83.40
2024-02-20T20:16:48.397Z,82.91
2024-02-20T20:19:17.774Z,82.85
2024-02-20T20:21:46.370Z,82.85
2024-02-20T20:24:18.043Z,82.25
2024-02-20T20:26:46.934Z,82.08
2024-02-20T20:29:15.193Z,82.60
2024-02-20T20:31:43.941Z,82.60
2024-02-20T20:34:12.231Z,82.57
2024-02-20T20:36:44.495Z,82.90
2024-02-20T20:39:12.523Z,83.18
2024-02-20T20:41:41.934Z,82.91
2024-02-20T20:44:10.353Z,83.08
2024-02-20T20:46:38.593Z,83.00
2024-02-20T20:49:08.171Z,83.72
2024-02-20T20:51:36.116Z,83.55
2024-02-20T20:54:05.745Z,82.71
2024-02-20T20:56:34.696Z,82.98
2024-02-20T20:59:03.317Z,84.02
2024-02-20T21:01:32.955Z,83.57
2024-02-20T21:04:04.378Z,84.17
2024-02-20T21:06:33.175Z,83.38
2024-02-20T21:09:01.350Z,82.72
2024-02-20T21:11:30.778Z,82.69
2024-02-20T21:13:58.925Z,82.91
2024-02-20T21:16:26.926Z,82.68
2024-02-20T21:18:55.259Z,82.55
2024-02-20T21:21:24.224Z,82.91
2024-02-20T21:23:53.312Z,83.12
2024-02-20T21:26:21.685Z,82.29
2024-02-20T21:28:52.044Z,82.09
2024-02-20T21:31:20.051Z,81.96
2024-02-20T21:33:48.594Z,82.14
2024-02-20T21:36:16.702Z,82.05
2024-02-20T21:38:44.509Z,81.73
2024-02-20T21:41:12.321Z,81.48
2024-02-20T21:43:40.332Z,81.34
2024-02-20T21:46:10.393Z,81.82
2024-02-20T21:48:39.010Z,81.74
2024-02-20T21:51:07.096Z,81.89
2024-02-20T21:53:35.122Z,81.63
2024-02-20T21:56:03.107Z,82.35
2024-02-20T21:58:30.961Z,82.25
2024-02-20T22:00:59.137Z,82.79
2024-02-20T22:03:28.381Z,82.58
2024-02-20T22:05:56.985Z,82.46
2024-02-20T22:08:25.136Z,82.21
2024-02-20T22:10:57.868Z,82.16
2024-02-20T22:13:25.938Z,81.71
2024-02-20T22:15:57.373Z,81.54
2024-02-20T22:18:26.580Z,81.54
2024-02-20T22:20:56.468Z,81.56
2024-02-20T22:23:24.310Z,82.24
2024-02-20T22:25:52.304Z,82.21
2024-02-20T22:28:20.438Z,82.93
2024-02-20T22:30:48.283Z,82.64
2024-02-20T22:33:16.465Z,82.17
2024-02-20T22:35:44.406Z,82.16
2024-02-20T22:38:13.771Z,81.89
2024-02-20T22:40:41.689Z,81.72
2024-02-20T22:43:09.537Z,81.96
2024-02-20T22:45:37.428Z,81.27
2024-02-20T22:48:06.130Z,80.85
2024-02-20T22:50:34.244Z,81.79
2024-02-20T22:53:02.793Z,81.97
2024-02-20T22:55:32.861Z,81.45
2024-02-20T22:58:00.607Z,81.44
2024-02-20T23:00:28.826Z,81.56
2024-02-20T23:02:56.621Z,80.78
2024-02-20T23:05:24.539Z,80.90
2024-02-20T23:07:52.508Z,80.96
2024-02-20T23:10:20.643Z,81.13
2024-02-20T23:12:49.928Z,80.78
2024-02-20T23:15:17.990Z,80.74
2024-02-20T23:17:45.853Z,80.45
2024-02-20T23:20:14.320Z,79.48
2024-02-20T23:22:42.379Z,79.48
2024-02-20T23:25:10.842Z,79.33
2024-02-20T23:27:38.995Z,79.54
2024-02-20T23:30:12.123Z,79.22
2024-02-20T23:32:40.027Z,79.97
2024-02-20T23:35:10.361Z,79.84
2024-02-20T23:37:38.290Z,79.40
2024-02-20T23:40:07.815Z,79.59
2024-02-20T23:42:35.890Z,79.79
2024-02-20T23:45:03.766Z,78.95
2024-02-20T23:47:33.091Z,78.66
2024-02-20T23:50:00.967Z,78.49
2024-02-20T23:52:28.813Z,78.47
2024-02-20T23:54:56.735Z,78.57
2024-02-20T23:57:24.568Z,78.36
2024-02-20T23:59:55.037Z,78.69
